createdAt,value
2022-10-26T00:04:58.598Z,4.37
2022-10-26T00:09:58.638Z,4.39
2022-10-26T00:14:58.593Z,4.52
2022-10-26T00:19:58.605Z,4.36
2022-10-26T00:24:58.652Z,4.35
2022-10-26T00:29:58.611Z,4.37
2022-10-26T00:35:02.990Z,4.34
2022-10-26T00:39:58.614Z,4.27
2022-10-26T00:44:58.617Z,4.35
2022-10-26T00:49:58.623Z,4.24
2022-10-26T00:54:58.655Z,4.14
2022-10-26T00:59:58.648Z,4.24
2022-10-26T01:04:58.645Z,4.35
2022-10-26T01:09:58.653Z,4.23
2022-10-26T01:14:58.626Z,4.32
2022-10-26T01:19:58.667Z,4.13
2022-10-26T01:24:58.633Z,4.14
2022-10-26T01:29:58.632Z,4.38
2022-10-26T01:34:58.674Z,4.46
2022-10-26T01:39:58.647Z,4.41
2022-10-26T01:44:58.640Z,4.62
2022-10-26T01:49:58.681Z,6.4
2022-10-26T01:54:58.683Z,7.05
2022-10-26T01:59:58.650Z,6.4
2022-10-26T02:04:58.646Z,5.85
2022-10-26T02:09:58.678Z,4.72
2022-10-26T02:14:58.657Z,5.14
2022-10-26T02:19:58.686Z,6
2022-10-26T02:24:58.664Z,5.56
2022-10-26T02:29:58.678Z,6.15
2022-10-26T02:34:58.699Z,5.33
2022-10-26T02:39:58.664Z,5.27
2022-10-26T02:44:58.662Z,4.61
2022-10-26T02:49:58.701Z,4.7
2022-10-26T02:54:58.668Z,5.02
2022-10-26T02:59:58.738Z,4.56
2022-10-26T03:04:58.715Z,3.4
2022-10-26T03:09:58.686Z,3.13
2022-10-26T03:14:58.700Z,3.3
2022-10-26T03:19:58.676Z,3.06
2022-10-26T03:24:58.756Z,3
2022-10-26T03:29:58.685Z,2.86
2022-10-26T03:34:58.718Z,3.07
2022-10-26T03:39:58.692Z,2.78
2022-10-26T03:44:58.693Z,2.76
2022-10-26T03:49:58.764Z,2.69
2022-10-26T03:54:58.732Z,2.77
2022-10-26T03:59:58.732Z,2.89
2022-10-26T04:04:58.734Z,2.8
2022-10-26T04:09:58.732Z,3.07
2022-10-26T04:14:58.751Z,3.03
2022-10-26T04:19:58.711Z,3.2
2022-10-26T04:24:58.739Z,3.14
2022-10-26T04:29:58.718Z,3.24
2022-10-26T04:34:58.719Z,3
2022-10-26T04:39:58.740Z,2.94
2022-10-26T04:44:58.722Z,3.23
2022-10-26T04:49:58.724Z,2.96
2022-10-26T04:54:58.754Z,3.12
2022-10-26T04:59:58.765Z,3.26
2022-10-26T05:04:58.805Z,3.22
2022-10-26T05:09:58.750Z,3.19
2022-10-26T05:14:58.766Z,3.84
2022-10-26T05:19:58.766Z,4.26
2022-10-26T05:24:58.753Z,3.82
2022-10-26T05:29:58.759Z,5.06
2022-10-26T05:34:58.767Z,4.47
2022-10-26T05:39:58.784Z,5.68
2022-10-26T05:44:58.746Z,4.57
2022-10-26T05:49:58.785Z,3.08
2022-10-26T05:54:58.768Z,2.8
2022-10-26T05:59:58.766Z,2.96
2022-10-26T06:04:58.778Z,2.63
2022-10-26T06:09:58.765Z,2.56
2022-10-26T06:14:58.801Z,2.78
2022-10-26T06:19:58.904Z,4.34
2022-10-26T06:24:58.769Z,5.63
2022-10-26T06:29:58.771Z,5.21
2022-10-26T06:34:58.767Z,4.09
2022-10-26T06:39:58.776Z,4.37
2022-10-26T06:44:58.798Z,3.98
2022-10-26T06:49:58.776Z,3.92
2022-10-26T06:54:58.819Z,3.62
2022-10-26T06:59:58.821Z,3.59
2022-10-26T07:04:58.785Z,3.77
2022-10-26T07:09:58.822Z,4.27
2022-10-26T07:14:58.872Z,4.47
2022-10-26T07:19:58.820Z,4.38
2022-10-26T07:25:00.537Z,5.09
2022-10-26T07:29:58.794Z,5.23
2022-10-26T07:34:58.793Z,5.05
2022-10-26T07:40:01.450Z,4.9
2022-10-26T07:44:58.797Z,4.5
2022-10-26T07:49:58.830Z,4.48
2022-10-26T07:54:58.836Z,4.38
2022-10-26T07:59:58.842Z,4.07
2022-10-26T08:04:58.851Z,4.19
2022-10-26T08:09:58.817Z,4.08
2022-10-26T08:14:58.848Z,4.03
2022-10-26T08:19:58.827Z,4.32
2022-10-26T08:24:58.852Z,4.41
2022-10-26T08:29:58.857Z,4.22
2022-10-26T08:34:58.854Z,3.66
2022-10-26T08:39:59.495Z,3.82
2022-10-26T08:44:58.829Z,3.72
2022-10-26T08:49:58.833Z,3.6
2022-10-26T08:54:58.892Z,3.16
2022-10-26T08:59:58.831Z,3.04
2022-10-26T09:04:58.860Z,2.84
2022-10-26T09:09:58.852Z,3
2022-10-26T09:14:58.842Z,2.9
2022-10-26T09:19:58.876Z,2.86
2022-10-26T09:24:58.881Z,3.16
2022-10-26T09:29:58.878Z,3.16
2022-10-26T09:34:58.863Z,3.04
2022-10-26T09:39:58.850Z,2.89
2022-10-26T09:44:58.861Z,2.5
2022-10-26T09:49:58.880Z,2.53
2022-10-26T09:54:58.872Z,2.31
2022-10-26T09:59:58.867Z,2.59
2022-10-26T10:04:58.870Z,2.3
2022-10-26T10:09:58.872Z,1.33
2022-10-26T10:14:58.885Z,1.19
2022-10-26T10:19:58.878Z,1.21
2022-10-26T10:24:58.881Z,1.45
2022-10-26T10:30:01.263Z,1.43
2022-10-26T10:34:58.902Z,1.4
2022-10-26T10:39:58.913Z,1.3
2022-10-26T10:44:58.930Z,1.13
2022-10-26T10:49:58.931Z,1.09
2022-10-26T10:54:58.924Z,1.2
2022-10-26T10:59:58.933Z,1.09
2022-10-26T11:04:58.934Z,1.13
2022-10-26T11:09:58.959Z,0.92
2022-10-26T11:14:58.923Z,0.94
2022-10-26T11:19:58.940Z,1.07
2022-10-26T11:24:58.950Z,1
2022-10-26T11:29:58.936Z,1.11
2022-10-26T11:34:58.955Z,1.22
2022-10-26T11:39:58.944Z,1.13
2022-10-26T11:44:58.966Z,1.37
2022-10-26T11:49:58.955Z,1.45
2022-10-26T11:54:58.962Z,1.59
2022-10-26T11:59:58.933Z,2.11
2022-10-26T12:04:58.934Z,1.49
2022-10-26T12:09:58.959Z,1.5
2022-10-26T12:14:58.962Z,1.52
2022-10-26T12:19:58.981Z,1.72
2022-10-26T12:24:58.931Z,2.82
2022-10-26T12:29:58.988Z,4.01
2022-10-26T12:34:58.942Z,6.35
2022-10-26T12:39:58.982Z,4.12
2022-10-26T12:44:58.955Z,3.56
2022-10-26T12:49:58.952Z,2.6
2022-10-26T12:54:58.994Z,2.81
2022-10-26T12:59:58.999Z,1.74
2022-10-26T13:04:58.995Z,1.53
2022-10-26T13:09:58.964Z,1.37
2022-10-26T13:14:58.969Z,1.27
2022-10-26T13:19:58.996Z,1.85
2022-10-26T13:24:59.016Z,11.38
2022-10-26T13:29:58.973Z,8.13
2022-10-26T13:34:58.975Z,4.73
2022-10-26T13:39:59.019Z,10.36
2022-10-26T13:44:59.029Z,7.64
2022-10-26T13:49:59.025Z,6.8
2022-10-26T13:54:58.993Z,4.24
2022-10-26T14:00:01.343Z,3.07
2022-10-26T14:04:59.000Z,2.23
2022-10-26T14:09:59.025Z,3.55
2022-10-26T14:14:59.006Z,3.95
2022-10-26T14:19:59.048Z,2.65
2022-10-26T14:24:59.044Z,2.53
2022-10-26T14:30:20.836Z,2.51
2022-10-26T14:34:59.054Z,2.72
2022-10-26T14:39:59.052Z,2.04
2022-10-26T14:44:59.055Z,1.87
2022-10-26T14:54:59.026Z,1.69
2022-10-26T14:59:59.026Z,1.41
2022-10-26T15:04:59.031Z,1.31
2022-10-26T15:09:59.028Z,1.31
2022-10-26T15:15:00.931Z,1.44
2022-10-26T15:19:59.037Z,1.63
2022-10-26T15:24:59.041Z,1.59
2022-10-26T15:29:59.069Z,1.69
2022-10-26T15:34:59.058Z,1.84
2022-10-26T15:39:59.059Z,2
2022-10-26T15:44:59.083Z,1.93
2022-10-26T15:49:59.084Z,2.08
2022-10-26T15:54:59.086Z,1.96
2022-10-26T15:59:59.071Z,2.38
2022-10-26T16:04:59.054Z,2.75
2022-10-26T16:09:59.113Z,4.75
2022-10-26T16:15:04.926Z,7.98
2022-10-26T16:19:59.161Z,7.96
2022-10-26T16:24:59.081Z,6.82
2022-10-26T16:29:59.101Z,6.59
2022-10-26T16:34:59.071Z,6.23
2022-10-26T16:39:59.069Z,6.23
2022-10-26T16:45:01.664Z,5.1
2022-10-26T16:49:59.083Z,5.07
2022-10-26T16:54:59.115Z,5.1
2022-10-26T16:59:59.098Z,4.84
2022-10-26T17:05:00.237Z,4.91
2022-10-26T17:09:59.159Z,4.2
2022-10-26T17:14:59.112Z,3.91
2022-10-26T17:19:59.091Z,4.03
2022-10-26T17:24:59.135Z,5.75
2022-10-26T17:29:59.091Z,6.17
2022-10-26T17:34:59.095Z,10.3
2022-10-26T17:39:59.113Z,7.12
2022-10-26T17:44:59.098Z,3.45
2022-10-26T17:49:59.099Z,3.27
2022-10-26T17:55:00.430Z,3.44
2022-10-26T17:59:59.131Z,3.63
2022-10-26T18:05:00.704Z,4.7
2022-10-26T18:10:08.907Z,4.25
2022-10-26T18:14:59.109Z,4.21
2022-10-26T18:19:59.120Z,4.61
2022-10-26T18:24:59.115Z,4.66
2022-10-26T18:29:59.112Z,4.48
2022-10-26T18:34:59.125Z,4.31
2022-10-26T18:39:59.154Z,4.39
2022-10-26T18:44:59.162Z,8.6
2022-10-26T18:49:59.151Z,7.68
2022-10-26T18:54:59.133Z,7.93
2022-10-26T18:59:59.128Z,4.36
2022-10-26T19:04:59.145Z,14.84
2022-10-26T19:09:59.139Z,9.88
2022-10-26T19:14:59.136Z,15.47
2022-10-26T19:19:59.140Z,22.59
2022-10-26T19:24:59.143Z,16.19
2022-10-26T19:29:59.179Z,20.31
2022-10-26T19:34:59.178Z,19.73
2022-10-26T19:39:59.179Z,19.04
2022-10-26T19:44:59.176Z,18.22
2022-10-26T19:49:59.163Z,15.47
2022-10-26T19:54:59.151Z,12.55
2022-10-26T19:59:59.181Z,16.9
2022-10-26T20:04:59.208Z,20.45
2022-10-26T20:09:59.185Z,20.49
2022-10-26T20:14:59.192Z,25
2022-10-26T20:19:59.194Z,21.66
2022-10-26T20:24:59.166Z,12.19
2022-10-26T20:29:59.217Z,25.41
2022-10-26T20:34:59.217Z,15.71
2022-10-26T20:39:59.208Z,14.64
2022-10-26T20:44:59.173Z,22.86
2022-10-26T20:49:59.184Z,20.87
2022-10-26T20:54:59.173Z,21.29
2022-10-26T20:59:59.175Z,24.6
2022-10-26T21:04:59.230Z,21.98
2022-10-26T21:09:59.189Z,24.57
2022-10-26T21:14:59.213Z,22.34
2022-10-26T21:19:59.226Z,21.91
2022-10-26T21:24:59.194Z,20.63
2022-10-26T21:29:59.194Z,19.26
2022-10-26T21:34:59.188Z,18.12
2022-10-26T21:39:59.191Z,18.97
2022-10-26T21:44:59.221Z,16.91
2022-10-26T21:49:59.252Z,16.8
2022-10-26T21:54:59.232Z,17.73
2022-10-26T21:59:59.224Z,18.28
2022-10-26T22:04:59.209Z,17.53
2022-10-26T22:10:10.161Z,15.78
2022-10-26T22:14:59.212Z,17.28
2022-10-26T22:19:59.213Z,17.06
2022-10-26T22:24:59.244Z,16.67
2022-10-26T22:29:59.214Z,14.57
2022-10-26T22:35:10.709Z,15.12
2022-10-26T22:39:59.216Z,14.77
2022-10-26T22:44:59.225Z,15.52
2022-10-26T22:49:59.225Z,14.88
2022-10-26T22:54:59.225Z,15.13
2022-10-26T22:59:59.252Z,14.85
2022-10-26T23:04:59.271Z,15.42
2022-10-26T23:09:59.226Z,15.32
2022-10-26T23:14:59.261Z,16.76
2022-10-26T23:19:59.245Z,15.6
2022-10-26T23:24:59.264Z,16.48
2022-10-26T23:29:59.256Z,15.77
2022-10-26T23:34:59.261Z,15.95
2022-10-26T23:39:59.287Z,15.45
2022-10-26T23:44:59.276Z,17.29
2022-10-26T23:49:59.274Z,16.32
2022-10-26T23:54:59.245Z,15.16
2022-10-26T23:59:59.248Z,14.88
